createdAt,value
2023-02-12T00:02:03.484Z,16.35
2023-02-12T00:04:30.204Z,18.20
2023-02-12T00:06:56.847Z,18.45
2023-02-12T00:09:23.463Z,17.20
2023-02-12T00:11:50.184Z,18.00
2023-02-12T00:14:16.805Z,20.63
2023-02-12T00:16:43.542Z,18.42
2023-02-12T00:19:10.532Z,19.85
2023-02-12T00:21:37.153Z,20.95
2023-02-12T00:24:03.950Z,20.67
2023-02-12T00:26:30.639Z,19.88
2023-02-12T00:28:57.382Z,20.70
2023-02-12T00:31:27.270Z,22.92
2023-02-12T00:33:54.247Z,21.80
2023-02-12T00:36:23.698Z,24.08
2023-02-12T00:38:52.500Z,22.05
2023-02-12T00:41:19.645Z,25.92
2023-02-12T00:43:46.679Z,23.42
2023-02-12T00:46:13.390Z,25.17
2023-02-12T00:48:40.284Z,23.55
2023-02-12T00:51:07.473Z,22.90
2023-02-12T00:53:34.472Z,23.27
2023-02-12T00:56:01.418Z,23.63
2023-02-12T00:58:28.052Z,23.33
2023-02-12T01:00:54.947Z,26.00
2023-02-12T01:03:21.791Z,25.23
2023-02-12T01:05:48.399Z,26.38
2023-02-12T01:08:16.610Z,24.85
2023-02-12T01:10:44.322Z,24.92
2023-02-12T01:13:15.002Z,27.35
2023-02-12T01:15:42.708Z,25.25
2023-02-12T01:18:09.372Z,23.95
2023-02-12T01:20:36.036Z,23.85
2023-02-12T01:23:02.770Z,26.52
2023-02-12T01:25:29.427Z,25.25
2023-02-12T01:27:56.236Z,27.40
2023-02-12T01:30:24.309Z,23.83
2023-02-12T01:32:51.048Z,24.15
2023-02-12T01:35:17.796Z,25.60
2023-02-12T01:37:45.119Z,26.42
2023-02-12T01:40:15.717Z,25.77
2023-02-12T01:42:42.315Z,25.50
2023-02-12T01:45:45.792Z,26.40
2023-02-12T01:48:14.825Z,27.42
2023-02-12T01:50:43.122Z,26.85
2023-02-12T01:53:10.102Z,26.75
2023-02-12T01:55:36.964Z,25.38
2023-02-12T01:58:05.381Z,28.08
2023-02-12T02:00:33.213Z,26.52
2023-02-12T02:03:02.001Z,26.77
2023-02-12T02:05:41.587Z,26.27
2023-02-12T02:08:09.458Z,26.85
2023-02-12T02:10:36.071Z,25.65
2023-02-12T02:13:21.791Z,27.00
2023-02-12T02:15:54.987Z,28.02
2023-02-12T02:18:42.196Z,25.70
2023-02-12T02:21:40.949Z,25.30
2023-02-12T02:24:31.686Z,25.67
2023-02-12T02:27:41.083Z,26.17
2023-02-12T02:30:32.746Z,27.40
2023-02-12T02:33:47.518Z,28.35
2023-02-12T02:36:59.780Z,27.60
2023-02-12T02:39:50.202Z,28.33
2023-02-12T02:42:30.013Z,29.40
2023-02-12T02:45:11.479Z,28.23
2023-02-12T02:47:44.664Z,31.17
2023-02-12T02:50:15.178Z,29.10
2023-02-12T02:52:49.668Z,32.30
2023-02-12T02:55:19.895Z,31.48
2023-02-12T02:57:53.568Z,31.75
2023-02-12T03:00:52.224Z,32.38
2023-02-12T03:03:38.332Z,31.70
2023-02-12T03:06:13.900Z,32.47
2023-02-12T03:08:47.419Z,32.72
2023-02-12T03:11:26.720Z,30.75
2023-02-12T03:14:20.772Z,30.65
2023-02-12T03:16:59.628Z,55.22
2023-02-12T03:19:32.525Z,47.08
2023-02-12T03:22:09.471Z,32.22
2023-02-12T03:24:44.626Z,30.38
2023-02-12T03:27:23.205Z,33.40
2023-02-12T03:29:49.871Z,35.90
2023-02-12T03:32:46.686Z,36.95
2023-02-12T03:35:31.485Z,36.60
2023-02-12T03:38:26.775Z,36.90
2023-02-12T03:41:03.691Z,53.83
2023-02-12T03:43:39.709Z,49.17
2023-02-12T03:46:23.240Z,65.35
2023-02-12T03:49:30.336Z,51.92
2023-02-12T03:51:58.335Z,72.20
2023-02-12T03:54:25.799Z,101.45
2023-02-12T03:56:58.142Z,92.50
2023-02-12T03:59:26.669Z,86.50
2023-02-12T04:01:55.947Z,63.72
2023-02-12T04:04:23.638Z,39.28
2023-02-12T04:06:51.466Z,42.40
2023-02-12T04:09:18.514Z,37.72
2023-02-12T04:12:19.821Z,57.70
2023-02-12T04:15:32.199Z,82.53
2023-02-12T04:18:19.333Z,46.05
2023-02-12T04:21:38.747Z,33.17
2023-02-12T04:24:23.098Z,35.15
2023-02-12T04:26:55.976Z,32.92
2023-02-12T04:29:57.708Z,32.53
2023-02-12T04:32:33.580Z,34.20
2023-02-12T04:35:09.747Z,33.20
2023-02-12T04:37:42.112Z,32.78
2023-02-12T04:40:13.893Z,33.78
2023-02-12T04:42:49.523Z,36.67
2023-02-12T04:45:28.461Z,36.60
2023-02-12T04:47:55.155Z,36.25
2023-02-12T04:50:22.126Z,34.88
2023-02-12T04:52:48.780Z,34.75
2023-02-12T04:55:15.868Z,33.63
2023-02-12T04:57:42.515Z,33.83
2023-02-12T05:00:14.102Z,34.72
2023-02-12T05:02:41.111Z,38.30
2023-02-12T05:05:08.144Z,34.22
2023-02-12T05:07:34.855Z,35.65
2023-02-12T05:10:01.493Z,34.70
2023-02-12T05:12:28.192Z,34.95
2023-02-12T05:14:54.887Z,36.95
2023-02-12T05:17:24.994Z,34.92
2023-02-12T05:19:51.724Z,34.55
2023-02-12T05:22:18.563Z,35.58
2023-02-12T05:24:45.421Z,35.38
2023-02-12T05:27:12.049Z,34.60
2023-02-12T05:29:38.930Z,34.03
2023-02-12T05:32:06.982Z,33.55
2023-02-12T05:34:34.581Z,33.20
2023-02-12T05:37:01.457Z,35.38
2023-02-12T05:39:28.148Z,35.05
2023-02-12T05:41:54.777Z,32.30
2023-02-12T05:44:21.466Z,33.53
2023-02-12T05:46:48.218Z,35.05
2023-02-12T05:49:14.865Z,32.97
2023-02-12T05:51:41.594Z,33.88
2023-02-12T05:54:08.572Z,32.90
2023-02-12T05:56:37.960Z,33.70
2023-02-12T05:59:08.192Z,32.30
2023-02-12T06:01:44.696Z,32.72
2023-02-12T06:04:17.049Z,32.03
2023-02-12T06:06:43.941Z,30.08
2023-02-12T06:09:11.860Z,31.58
2023-02-12T06:11:38.708Z,32.05
2023-02-12T06:14:07.587Z,30.70
2023-02-12T06:16:35.226Z,30.27
2023-02-12T06:19:04.505Z,30.42
2023-02-12T06:21:32.205Z,32.35
2023-02-12T06:23:59.060Z,31.80
2023-02-12T06:26:25.882Z,30.65
2023-02-12T06:28:52.713Z,30.67
2023-02-12T06:31:22.494Z,31.58
2023-02-12T06:33:49.995Z,31.10
2023-02-12T06:36:16.751Z,30.73
2023-02-12T06:38:43.470Z,31.75
2023-02-12T06:41:10.272Z,32.90
2023-02-12T06:43:37.263Z,30.75
2023-02-12T06:46:04.833Z,31.77
2023-02-12T06:48:32.368Z,31.88
2023-02-12T06:51:17.295Z,31.98
2023-02-12T06:53:44.700Z,32.78
2023-02-12T06:56:13.521Z,34.75
2023-02-12T06:58:42.062Z,39.60
2023-02-12T07:01:18.060Z,37.95
2023-02-12T07:03:50.389Z,39.08
2023-02-12T07:06:17.671Z,41.40
2023-02-12T07:08:44.385Z,37.75
2023-02-12T07:11:11.793Z,35.55
2023-02-12T07:13:41.232Z,29.92
2023-02-12T07:16:11.884Z,28.98
2023-02-12T07:18:39.615Z,27.70
2023-02-12T07:21:07.857Z,28.73
2023-02-12T07:23:35.071Z,28.48
2023-02-12T07:26:06.696Z,28.48
2023-02-12T07:28:34.480Z,27.53
2023-02-12T07:31:11.250Z,27.52
2023-02-12T07:33:38.996Z,28.05
2023-02-12T07:36:08.340Z,26.65
2023-02-12T07:38:40.022Z,26.10
2023-02-12T07:41:15.845Z,28.93
2023-02-12T07:43:44.639Z,26.05
2023-02-12T07:46:18.159Z,26.95
2023-02-12T07:48:46.245Z,25.75
2023-02-12T07:51:15.724Z,24.27
2023-02-12T07:53:42.828Z,26.67
2023-02-12T07:56:12.070Z,26.38
2023-02-12T07:58:39.459Z,26.35
2023-02-12T08:01:36.561Z,26.48
2023-02-12T08:04:06.163Z,24.15
2023-02-12T08:06:35.626Z,24.33
2023-02-12T08:09:05.675Z,23.75
2023-02-12T08:11:33.495Z,24.90
2023-02-12T08:14:00.977Z,25.20
2023-02-12T08:16:28.999Z,23.30
2023-02-12T08:19:02.359Z,24.13
2023-02-12T08:21:34.677Z,23.13
2023-02-12T08:24:01.532Z,26.98
2023-02-12T08:26:34.437Z,22.23
2023-02-12T08:29:07.165Z,24.35
2023-02-12T08:31:39.350Z,22.38
2023-02-12T08:34:06.271Z,24.48
2023-02-12T08:36:38.815Z,24.77
2023-02-12T08:41:33.087Z,23.90
2023-02-12T08:44:02.877Z,24.02
2023-02-12T08:46:35.165Z,22.33
2023-02-12T08:49:09.472Z,21.00
2023-02-12T08:51:37.460Z,21.10
2023-02-12T08:54:06.067Z,22.30
2023-02-12T08:56:35.088Z,22.63
2023-02-12T08:59:04.128Z,23.08
2023-02-12T09:01:33.061Z,21.60
2023-02-12T09:03:59.978Z,21.48
2023-02-12T09:06:27.573Z,28.05
2023-02-12T09:08:55.374Z,20.88
2023-02-12T09:11:26.714Z,24.52
2023-02-12T09:13:53.363Z,21.58
2023-02-12T09:16:20.084Z,21.42
2023-02-12T09:18:46.742Z,23.20
2023-02-12T09:21:15.955Z,20.98
2023-02-12T09:23:44.154Z,20.92
2023-02-12T09:26:13.712Z,20.52
2023-02-12T09:28:40.363Z,21.90
2023-02-12T09:31:08.378Z,21.88
2023-02-12T09:33:35.082Z,21.63
2023-02-12T09:36:03.436Z,21.15
2023-02-12T09:38:30.448Z,21.52
2023-02-12T09:41:36.619Z,20.25
2023-02-12T09:44:42.099Z,20.10
2023-02-12T09:47:13.351Z,19.67
2023-02-12T09:49:48.768Z,22.05
2023-02-12T09:52:21.959Z,19.23
2023-02-12T09:54:50.799Z,19.13
2023-02-12T09:57:31.168Z,19.50
2023-02-12T10:00:06.816Z,22.30
2023-02-12T10:02:36.710Z,19.55
2023-02-12T10:05:04.775Z,21.30
2023-02-12T10:08:24.905Z,19.70
2023-02-12T10:11:16.118Z,21.27
2023-02-12T10:14:22.144Z,20.35
2023-02-12T10:17:07.873Z,19.13
2023-02-12T10:20:11.623Z,19.40
2023-02-12T10:22:56.553Z,18.70
2023-02-12T10:25:54.771Z,19.08
2023-02-12T10:28:42.518Z,19.17
2023-02-12T10:31:36.034Z,19.60
2023-02-12T10:34:15.475Z,17.17
2023-02-12T10:36:47.647Z,17.85
2023-02-12T10:39:21.831Z,20.67
2023-02-12T10:42:36.086Z,18.45
2023-02-12T10:45:02.863Z,18.85
2023-02-12T10:47:29.506Z,19.60
2023-02-12T10:50:00.560Z,19.38
2023-02-12T10:52:42.416Z,19.20
2023-02-12T10:55:47.942Z,19.42
2023-02-12T10:58:24.238Z,17.27
2023-02-12T11:00:59.070Z,18.45
2023-02-12T11:03:34.380Z,16.48
2023-02-12T11:06:19.168Z,19.42
2023-02-12T11:08:46.059Z,18.40
2023-02-12T11:11:31.224Z,16.55
2023-02-12T11:14:14.580Z,17.30
2023-02-12T11:16:56.548Z,16.35
2023-02-12T11:19:26.989Z,16.20
2023-02-12T11:22:06.548Z,17.40
2023-02-12T11:24:35.955Z,16.67
2023-02-12T11:27:37.805Z,17.08
2023-02-12T11:30:21.786Z,17.88
2023-02-12T11:32:49.558Z,17.77
2023-02-12T11:35:26.937Z,17.98
2023-02-12T11:37:58.711Z,16.20
2023-02-12T11:40:36.490Z,16.15
2023-02-12T11:43:09.309Z,15.57
2023-02-12T11:45:47.538Z,15.40
2023-02-12T11:48:18.791Z,15.70
2023-02-12T11:50:52.186Z,16.05
2023-02-12T11:53:34.633Z,14.63
2023-02-12T11:56:08.046Z,15.73
2023-02-12T11:58:34.693Z,17.05
2023-02-12T12:01:24.176Z,19.60
2023-02-12T12:04:05.158Z,18.42
2023-02-12T12:06:36.295Z,17.27
2023-02-12T12:09:15.628Z,17.90
2023-02-12T12:12:17.764Z,18.70
2023-02-12T12:15:21.413Z,17.63
2023-02-12T12:18:14.981Z,18.23
2023-02-12T12:20:52.687Z,15.43
2023-02-12T12:23:25.334Z,16.70
2023-02-12T12:25:58.033Z,16.65
2023-02-12T12:28:35.029Z,15.75
2023-02-12T12:31:21.993Z,16.70
2023-02-12T12:34:06.124Z,17.17
2023-02-12T12:37:10.094Z,15.80
2023-02-12T12:39:58.343Z,16.13
2023-02-12T12:43:20.796Z,18.23
2023-02-12T12:49:12.427Z,16.40
2023-02-12T12:52:11.129Z,17.42
2023-02-12T12:55:24.198Z,18.25
2023-02-12T12:58:24.803Z,19.35
2023-02-12T13:01:00.753Z,18.88
2023-02-12T13:03:42.662Z,18.95
2023-02-12T13:06:27.605Z,18.27
2023-02-12T13:09:24.969Z,18.38
2023-02-12T13:12:16.013Z,17.23
2023-02-12T13:15:33.221Z,18.55
2023-02-12T13:18:18.486Z,16.80
2023-02-12T13:21:20.140Z,18.13
2023-02-12T13:24:18.644Z,16.80
2023-02-12T13:27:08.550Z,18.40
2023-02-12T13:29:40.232Z,17.05
2023-02-12T13:32:29.041Z,15.70
2023-02-12T13:34:57.525Z,19.67
2023-02-12T13:37:54.358Z,16.55
2023-02-12T13:40:26.299Z,16.13
2023-02-12T13:43:30.682Z,14.98
2023-02-12T13:46:18.584Z,16.85
2023-02-12T13:49:28.976Z,17.95
2023-02-12T13:52:24.351Z,16.48
2023-02-12T13:55:23.052Z,16.85
2023-02-12T13:58:28.342Z,17.25
2023-02-12T14:01:00.837Z,16.45
2023-02-12T14:06:17.651Z,17.75
2023-02-12T14:09:04.967Z,16.45
2023-02-12T14:11:31.635Z,16.85
2023-02-12T14:14:01.498Z,16.90
2023-02-12T14:16:46.723Z,17.00
2023-02-12T14:19:58.325Z,16.88
2023-02-12T14:25:25.468Z,16.83
2023-02-12T14:28:06.517Z,17.35
2023-02-12T14:30:40.348Z,15.95
2023-02-12T14:33:19.837Z,16.90
2023-02-12T14:35:49.515Z,15.65
2023-02-12T14:38:47.474Z,15.40
2023-02-12T14:41:44.632Z,16.48
2023-02-12T14:44:39.132Z,15.82
2023-02-12T14:47:14.620Z,18.23
2023-02-12T14:49:55.811Z,16.63
2023-02-12T14:52:28.742Z,18.63
2023-02-12T14:55:02.816Z,18.38
2023-02-12T14:57:38.895Z,18.52
2023-02-12T15:00:28.495Z,17.17
2023-02-12T15:03:02.587Z,17.02
2023-02-12T15:05:43.405Z,18.13
2023-02-12T15:08:29.174Z,16.23
2023-02-12T15:11:06.832Z,17.67
2023-02-12T15:14:27.093Z,18.95
2023-02-12T15:17:02.257Z,18.27
2023-02-12T15:20:02.142Z,15.75
2023-02-12T15:22:35.985Z,16.70
2023-02-12T15:25:25.870Z,16.85
2023-02-12T15:27:57.762Z,17.02
2023-02-12T15:30:27.956Z,17.80
2023-02-12T15:32:59.700Z,16.60
2023-02-12T15:35:29.976Z,17.08
2023-02-12T15:38:00.189Z,18.13
2023-02-12T15:40:27.980Z,16.60
2023-02-12T15:43:04.217Z,18.35
2023-02-12T15:45:34.176Z,17.15
2023-02-12T15:48:17.982Z,17.67
2023-02-12T15:50:55.294Z,17.10
2023-02-12T15:53:24.537Z,17.13
2023-02-12T15:55:51.766Z,17.67
2023-02-12T15:58:25.249Z,17.40
2023-02-12T16:00:53.727Z,17.10
2023-02-12T16:03:26.683Z,16.70
2023-02-12T16:05:58.073Z,16.88
2023-02-12T16:08:25.331Z,18.33
2023-02-12T16:10:54.321Z,18.55
2023-02-12T16:13:38.903Z,19.15
2023-02-12T16:16:18.586Z,19.15
2023-02-12T16:18:46.631Z,18.02
2023-02-12T16:21:20.552Z,18.75
2023-02-12T16:23:50.015Z,19.23
2023-02-12T16:26:23.427Z,21.23
2023-02-12T16:28:54.185Z,19.13
2023-02-12T16:31:24.592Z,21.35
2023-02-12T16:33:53.969Z,21.63
2023-02-12T16:36:31.764Z,22.95
2023-02-12T16:39:05.277Z,21.67
2023-02-12T16:41:33.546Z,23.23
2023-02-12T16:44:20.273Z,20.60
2023-02-12T16:46:56.661Z,22.48
2023-02-12T16:49:26.117Z,20.60
2023-02-12T16:51:53.808Z,22.58
2023-02-12T16:54:34.748Z,22.88
2023-02-12T16:57:02.068Z,23.38
2023-02-12T16:59:29.166Z,21.58
2023-02-12T17:02:05.279Z,23.00
2023-02-12T17:04:31.934Z,23.10
2023-02-12T17:06:58.521Z,24.13
2023-02-12T17:09:25.255Z,23.05
2023-02-12T17:11:51.902Z,22.63
2023-02-12T17:14:20.442Z,21.70
2023-02-12T17:16:47.736Z,21.33
2023-02-12T17:19:14.582Z,24.05
2023-02-12T17:21:43.813Z,22.35
2023-02-12T17:24:19.342Z,22.02
2023-02-12T17:26:45.901Z,22.25
2023-02-12T17:29:12.551Z,22.40
2023-02-12T17:31:39.307Z,23.20
2023-02-12T17:34:06.267Z,24.30
2023-02-12T17:36:33.566Z,22.90
2023-02-12T17:39:00.804Z,22.88
2023-02-12T17:41:27.461Z,21.92
2023-02-12T17:43:54.016Z,23.77
2023-02-12T17:46:23.730Z,24.48
2023-02-12T17:48:50.630Z,27.35
2023-02-12T17:51:18.079Z,24.85
2023-02-12T17:53:45.358Z,23.40
2023-02-12T17:56:14.202Z,22.33
2023-02-12T17:58:41.751Z,21.60
2023-02-12T18:01:11.257Z,20.23
2023-02-12T18:03:38.938Z,19.35
2023-02-12T18:06:08.682Z,20.92
2023-02-12T18:08:35.581Z,19.52
2023-02-12T18:11:06.728Z,19.98
2023-02-12T18:13:33.872Z,19.20
2023-02-12T18:16:00.695Z,19.42
2023-02-12T18:18:27.316Z,18.95
2023-02-12T18:20:54.073Z,18.58
2023-02-12T18:23:20.830Z,19.95
2023-02-12T18:25:47.365Z,19.33
2023-02-12T18:28:14.015Z,18.88
2023-02-12T18:30:43.123Z,18.58
2023-02-12T18:33:12.415Z,18.17
2023-02-12T18:35:41.672Z,17.85
2023-02-12T18:38:08.354Z,18.02
2023-02-12T18:40:35.252Z,18.25
2023-02-12T18:43:01.775Z,19.40
2023-02-12T18:45:28.396Z,18.70
2023-02-12T18:47:54.984Z,18.30
2023-02-12T18:50:21.646Z,18.55
2023-02-12T18:52:48.271Z,21.05
2023-02-12T18:55:14.833Z,18.00
2023-02-12T18:57:41.454Z,17.63
2023-02-12T19:00:08.873Z,17.50
2023-02-12T19:02:35.460Z,19.98
2023-02-12T19:05:02.263Z,20.08
2023-02-12T19:07:28.879Z,19.40
2023-02-12T19:09:55.515Z,19.55
2023-02-12T19:12:23.727Z,20.80
2023-02-12T19:14:50.326Z,23.75
2023-02-12T19:17:16.941Z,24.50
2023-02-12T19:19:43.893Z,27.00
2023-02-12T19:22:10.529Z,27.95
2023-02-12T19:24:46.193Z,25.05
2023-02-12T19:27:13.614Z,23.20
2023-02-12T19:29:40.250Z,20.35
2023-02-12T19:32:06.938Z,37.20
2023-02-12T19:34:33.544Z,27.67
2023-02-12T19:37:00.299Z,24.42
2023-02-12T19:39:27.474Z,23.20
2023-02-12T19:41:56.116Z,25.05
2023-02-12T19:44:25.400Z,29.73
2023-02-12T19:46:52.642Z,29.65
2023-02-12T19:49:26.881Z,29.10
2023-02-12T19:51:53.763Z,26.30
2023-02-12T19:54:21.974Z,26.00
2023-02-12T19:56:49.113Z,24.02
2023-02-12T19:59:18.013Z,24.92
2023-02-12T20:01:45.975Z,24.75
2023-02-12T20:04:14.758Z,24.00
2023-02-12T20:06:42.509Z,23.80
2023-02-12T20:09:11.095Z,25.10
2023-02-12T20:11:38.576Z,25.88
2023-02-12T20:14:10.012Z,25.42
2023-02-12T20:16:39.119Z,27.90
2023-02-12T20:19:33.438Z,27.20
2023-02-12T20:22:01.628Z,28.92
2023-02-12T20:24:31.056Z,27.50
2023-02-12T20:26:59.875Z,29.52
2023-02-12T20:29:26.518Z,29.90
2023-02-12T20:31:53.342Z,28.40
2023-02-12T20:34:20.348Z,25.10
2023-02-12T20:36:47.394Z,23.80
2023-02-12T20:39:16.404Z,22.63
2023-02-12T20:41:43.387Z,20.60
2023-02-12T20:44:14.015Z,19.17
2023-02-12T20:46:42.197Z,18.60
2023-02-12T20:49:12.480Z,18.10
2023-02-12T20:51:39.314Z,18.40
2023-02-12T20:54:06.064Z,17.63
2023-02-12T20:56:35.827Z,18.58
2023-02-12T20:59:03.479Z,22.58
2023-02-12T21:01:36.090Z,19.55
2023-02-12T21:04:08.646Z,19.58
2023-02-12T21:09:02.739Z,18.40
2023-02-12T21:11:29.898Z,16.25
2023-02-12T21:14:12.423Z,15.88
2023-02-12T21:16:45.455Z,14.63
2023-02-12T21:19:14.031Z,16.00
2023-02-12T21:21:41.591Z,17.02
2023-02-12T21:24:11.807Z,17.67
2023-02-12T21:26:38.447Z,18.83
2023-02-12T21:29:05.135Z,22.80
2023-02-12T21:31:37.668Z,26.65
2023-02-12T21:34:06.115Z,30.45
2023-02-12T21:36:36.475Z,27.25
2023-02-12T21:39:05.200Z,24.13
2023-02-12T21:41:36.849Z,24.17
2023-02-12T21:44:06.980Z,22.27
2023-02-12T21:46:35.846Z,20.48
2023-02-12T21:49:03.495Z,18.83
2023-02-12T21:51:39.004Z,18.50
2023-02-12T21:54:09.319Z,20.48
2023-02-12T21:56:37.849Z,19.00
2023-02-12T21:59:04.846Z,18.63
2023-02-12T22:01:34.568Z,17.27
2023-02-12T22:04:02.116Z,16.35
2023-02-12T22:06:28.918Z,16.23
2023-02-12T22:09:00.620Z,15.88
2023-02-12T22:11:27.457Z,15.65
2023-02-12T22:13:54.078Z,15.27
2023-02-12T22:16:23.112Z,16.08
2023-02-12T22:18:52.849Z,19.20
2023-02-12T22:21:19.491Z,15.40
2023-02-12T22:23:46.134Z,16.23
2023-02-12T22:26:16.182Z,15.68
2023-02-12T22:28:48.828Z,15.57
2023-02-12T22:31:19.618Z,14.20
2023-02-12T22:33:47.886Z,14.77
2023-02-12T22:36:14.858Z,14.65
2023-02-12T22:38:41.765Z,13.27
2023-02-12T22:41:09.101Z,13.48
2023-02-12T22:43:39.604Z,12.45
2023-02-12T22:46:07.908Z,14.07
2023-02-12T22:48:34.716Z,14.18
2023-02-12T22:51:11.865Z,13.25
2023-02-12T22:53:38.956Z,13.23
2023-02-12T22:56:07.937Z,14.40
2023-02-12T22:58:35.096Z,15.10
2023-02-12T23:01:06.690Z,14.60
2023-02-12T23:03:33.881Z,13.50
2023-02-12T23:06:05.494Z,13.60
2023-02-12T23:08:32.531Z,13.00
2023-02-12T23:10:59.583Z,13.18
2023-02-12T23:13:29.852Z,13.93
2023-02-12T23:15:57.636Z,13.82
2023-02-12T23:18:24.880Z,13.05
2023-02-12T23:20:52.808Z,12.68
2023-02-12T23:23:20.792Z,12.77
2023-02-12T23:25:48.001Z,12.35
2023-02-12T23:28:15.270Z,11.88
2023-02-12T23:30:42.040Z,11.63
2023-02-12T23:33:09.058Z,12.90
2023-02-12T23:35:35.683Z,11.98
2023-02-12T23:38:04.322Z,10.75
2023-02-12T23:40:32.379Z,9.98
2023-02-12T23:42:59.122Z,10.07
2023-02-12T23:45:26.709Z,10.32
2023-02-12T23:47:53.425Z,10.77
2023-02-12T23:50:20.478Z,10.43
2023-02-12T23:52:47.180Z,10.63
2023-02-12T23:55:13.821Z,10.40
2023-02-12T23:57:40.439Z,10.75
